createdAt,value
2023-03-07T00:02:09.728Z,12.57
2023-03-07T00:04:36.939Z,13.75
2023-03-07T00:07:04.182Z,15.52
2023-03-07T00:09:31.381Z,15.32
2023-03-07T00:11:58.582Z,14.85
2023-03-07T00:14:26.384Z,14.40
2023-03-07T00:16:53.459Z,15.82
2023-03-07T00:19:20.900Z,15.77
2023-03-07T00:21:48.031Z,14.55
2023-03-07T00:24:15.302Z,14.45
2023-03-07T00:26:42.397Z,15.35
2023-03-07T00:29:12.463Z,15.88
2023-03-07T00:31:39.746Z,16.08
2023-03-07T00:34:07.165Z,15.75
2023-03-07T00:36:34.405Z,15.70
2023-03-07T00:39:01.595Z,15.50
2023-03-07T00:41:30.053Z,16.60
2023-03-07T00:43:57.217Z,15.70
2023-03-07T00:46:45.458Z,14.82
2023-03-07T00:49:13.121Z,16.63
2023-03-07T00:51:40.253Z,15.27
2023-03-07T00:54:07.979Z,16.15
2023-03-07T00:56:36.089Z,15.13
2023-03-07T00:59:03.747Z,16.52
2023-03-07T01:01:31.647Z,14.73
2023-03-07T01:03:59.072Z,14.57
2023-03-07T01:06:30.449Z,14.68
2023-03-07T01:09:02.474Z,14.70
2023-03-07T01:11:31.426Z,16.10
2023-03-07T01:14:01.999Z,15.32
2023-03-07T01:16:34.209Z,15.23
2023-03-07T01:19:06.105Z,14.80
2023-03-07T01:21:40.595Z,14.98
2023-03-07T01:24:13.875Z,15.05
2023-03-07T01:26:44.260Z,15.93
2023-03-07T01:29:12.322Z,14.27
2023-03-07T01:31:39.703Z,14.23
2023-03-07T01:34:08.663Z,15.77
2023-03-07T01:36:38.023Z,13.10
2023-03-07T01:39:52.846Z,12.77
2023-03-07T01:45:14.251Z,13.32
2023-03-07T01:47:47.034Z,12.65
2023-03-07T01:50:18.621Z,14.15
2023-03-07T01:52:57.022Z,15.80
2023-03-07T01:55:32.900Z,14.10
2023-03-07T01:58:13.071Z,14.38
2023-03-07T02:00:42.972Z,14.45
2023-03-07T02:03:24.214Z,14.13
2023-03-07T02:05:59.891Z,14.15
2023-03-07T02:09:39.264Z,13.43
2023-03-07T02:16:40.307Z,14.60
2023-03-07T02:21:07.856Z,12.75
2023-03-07T02:25:02.686Z,14.25
2023-03-07T02:29:05.676Z,13.57
2023-03-07T02:43:44.772Z,14.05
2023-03-07T02:46:21.966Z,14.80
2023-03-07T02:58:21.562Z,14.38
2023-03-07T03:05:00.094Z,14.43
2023-03-07T03:12:01.372Z,14.27
2023-03-07T03:18:11.733Z,14.18
2023-03-07T03:20:42.776Z,15.05
2023-03-07T03:23:13.279Z,14.02
2023-03-07T03:25:40.571Z,12.25
2023-03-07T03:28:08.930Z,15.68
2023-03-07T03:30:36.727Z,11.35
2023-03-07T03:33:07.026Z,14.15
2023-03-07T03:45:15.143Z,12.75
2023-03-07T03:47:42.514Z,13.02
2023-03-07T03:50:11.208Z,12.55
2023-03-07T03:52:38.761Z,13.10
2023-03-07T03:55:06.589Z,12.98
2023-03-07T03:57:37.396Z,10.05
2023-03-07T04:00:09.582Z,11.07
2023-03-07T04:02:39.973Z,12.15
2023-03-07T04:05:11.029Z,11.43
2023-03-07T04:07:39.148Z,10.75
2023-03-07T04:10:07.128Z,11.50
2023-03-07T04:12:34.912Z,12.75
2023-03-07T04:15:02.038Z,13.07
2023-03-07T04:17:29.352Z,13.20
2023-03-07T04:19:56.616Z,11.65
2023-03-07T04:22:24.437Z,10.95
2023-03-07T04:24:51.929Z,11.57
2023-03-07T04:27:19.293Z,10.90
2023-03-07T04:29:46.462Z,12.45
2023-03-07T04:32:20.466Z,11.10
2023-03-07T04:34:48.982Z,10.77
2023-03-07T04:37:16.064Z,11.85
2023-03-07T04:39:46.813Z,11.63
2023-03-07T04:42:18.100Z,10.65
2023-03-07T04:44:46.538Z,10.98
2023-03-07T04:47:16.472Z,10.63
2023-03-07T04:49:43.800Z,11.55
2023-03-07T04:52:11.537Z,10.80
2023-03-07T04:54:40.852Z,12.73
2023-03-07T04:57:08.862Z,10.48
2023-03-07T04:59:39.277Z,10.77
2023-03-07T05:02:11.635Z,7.63
2023-03-07T05:04:42.057Z,10.25
2023-03-07T05:07:09.704Z,10.43
2023-03-07T05:09:37.296Z,11.38
2023-03-07T05:12:04.771Z,11.15
2023-03-07T05:14:32.005Z,11.65
2023-03-07T05:16:59.215Z,9.27
2023-03-07T05:19:27.012Z,8.57
2023-03-07T05:21:56.999Z,10.25
2023-03-07T05:24:24.291Z,10.32
2023-03-07T05:26:51.780Z,8.38
2023-03-07T05:29:18.913Z,6.43
2023-03-07T05:31:46.254Z,7.78
2023-03-07T05:34:17.921Z,10.18
2023-03-07T05:36:45.749Z,6.35
2023-03-07T05:39:14.499Z,10.40
2023-03-07T05:41:45.477Z,9.15
2023-03-07T05:44:13.952Z,6.30
2023-03-07T05:46:41.638Z,11.23
2023-03-07T05:49:09.536Z,11.00
2023-03-07T05:51:36.745Z,8.48
2023-03-07T05:58:32.516Z,11.02
2023-03-07T06:01:12.068Z,11.52
2023-03-07T06:07:44.133Z,8.75
2023-03-07T06:10:15.138Z,9.93
2023-03-07T06:13:19.490Z,11.43
2023-03-07T06:15:53.061Z,10.65
2023-03-07T06:19:15.069Z,9.75
2023-03-07T06:21:43.906Z,6.85
2023-03-07T06:24:11.268Z,9.15
2023-03-07T06:26:39.279Z,7.93
2023-03-07T06:34:03.466Z,9.20
2023-03-07T06:41:00.061Z,8.32
2023-03-07T06:43:27.932Z,6.47
2023-03-07T06:45:59.014Z,10.10
2023-03-07T06:50:09.092Z,8.57
2023-03-07T06:52:11.513Z,7.00
2023-03-07T06:58:42.633Z,6.35
2023-03-07T07:01:20.714Z,9.32
2023-03-07T07:03:51.194Z,7.93
2023-03-07T07:06:19.237Z,9.18
2023-03-07T07:08:48.027Z,9.43
2023-03-07T07:11:15.840Z,7.15
2023-03-07T07:13:45.681Z,4.70
2023-03-07T07:16:15.008Z,5.32
2023-03-07T07:18:42.536Z,9.50
2023-03-07T07:29:31.007Z,6.35
2023-03-07T07:32:00.281Z,5.00
2023-03-07T07:34:28.502Z,6.15
2023-03-07T07:50:36.014Z,5.57
2023-03-07T07:53:21.326Z,7.13
2023-03-07T07:55:49.658Z,6.72
2023-03-07T07:58:20.279Z,6.40
2023-03-07T08:00:48.784Z,4.72
2023-03-07T08:03:16.125Z,4.65
2023-03-07T08:05:48.682Z,6.80
2023-03-07T08:08:18.058Z,7.40
2023-03-07T08:10:49.161Z,4.93
2023-03-07T08:13:34.844Z,4.80
2023-03-07T08:16:15.001Z,4.95
2023-03-07T08:18:44.299Z,5.30
2023-03-07T08:21:13.456Z,5.75
2023-03-07T08:23:40.671Z,4.82
2023-03-07T08:26:10.473Z,4.90
2023-03-07T08:28:38.213Z,4.53
2023-03-07T08:31:14.812Z,5.47
2023-03-07T08:34:07.515Z,4.13
2023-03-07T08:36:35.482Z,4.93
2023-03-07T08:39:03.865Z,3.78
2023-03-07T08:42:54.964Z,5.38
2023-03-07T08:45:25.323Z,5.32
2023-03-07T08:47:54.748Z,4.65
2023-03-07T08:51:47.029Z,5.13
2023-03-07T08:54:20.220Z,4.45
2023-03-07T08:56:47.272Z,3.42
2023-03-07T09:00:09.728Z,4.68
2023-03-07T09:02:36.875Z,3.75
2023-03-07T09:05:06.985Z,5.53
2023-03-07T09:07:35.358Z,3.67
2023-03-07T09:10:02.540Z,3.60
2023-03-07T09:12:30.026Z,5.05
2023-03-07T09:14:58.446Z,3.53
2023-03-07T09:17:25.690Z,4.65
2023-03-07T09:19:52.775Z,4.10
2023-03-07T09:22:20.120Z,3.72
2023-03-07T09:24:47.162Z,3.33
2023-03-07T09:27:14.379Z,4.38
2023-03-07T09:29:41.482Z,4.35
2023-03-07T09:32:09.143Z,4.05
2023-03-07T09:34:36.523Z,3.13
2023-03-07T09:37:03.804Z,4.60
2023-03-07T09:39:31.870Z,4.60
2023-03-07T09:42:47.975Z,4.05
2023-03-07T09:45:40.470Z,3.47
2023-03-07T09:48:30.652Z,3.50
2023-03-07T09:51:24.277Z,3.78
2023-03-07T09:54:04.980Z,5.82
2023-03-07T09:57:40.496Z,4.88
2023-03-07T10:00:33.647Z,4.03
2023-03-07T10:03:38.189Z,4.47
2023-03-07T10:06:37.663Z,4.82
2023-03-07T10:09:18.725Z,4.00
2023-03-07T10:12:05.936Z,4.18
2023-03-07T10:15:03.626Z,4.50
2023-03-07T10:18:19.131Z,5.47
2023-03-07T10:21:09.434Z,4.25
2023-03-07T10:25:02.116Z,5.35
2023-03-07T10:27:44.971Z,4.30
2023-03-07T10:35:12.037Z,4.80
2023-03-07T10:38:05.194Z,5.20
2023-03-07T10:40:50.036Z,5.05
2023-03-07T10:43:33.873Z,5.40
2023-03-07T10:46:26.198Z,4.82
2023-03-07T10:49:09.875Z,5.20
2023-03-07T10:52:05.185Z,3.75
2023-03-07T10:54:38.890Z,5.38
2023-03-07T10:57:17.733Z,5.00
2023-03-07T10:59:50.511Z,5.22
2023-03-07T11:02:56.828Z,4.50
2023-03-07T11:07:00.266Z,4.50
2023-03-07T11:09:59.178Z,5.47
2023-03-07T11:12:46.471Z,5.40
2023-03-07T11:19:47.389Z,4.93
2023-03-07T11:22:36.741Z,5.25
2023-03-07T11:25:26.551Z,5.03
2023-03-07T11:27:57.013Z,4.80
2023-03-07T11:30:53.783Z,5.88
2023-03-07T11:33:52.977Z,4.85
2023-03-07T11:36:40.299Z,4.28
2023-03-07T11:39:46.056Z,4.00
2023-03-07T11:42:24.021Z,3.88
2023-03-07T11:45:17.667Z,5.03
2023-03-07T11:48:15.057Z,4.40
2023-03-07T11:50:50.803Z,5.57
2023-03-07T11:54:07.809Z,4.30
2023-03-07T11:56:47.001Z,5.03
2023-03-07T11:59:37.507Z,4.82
2023-03-07T12:02:30.234Z,5.63
2023-03-07T12:08:08.421Z,4.80
2023-03-07T12:10:58.788Z,5.55
2023-03-07T12:23:40.821Z,5.05
2023-03-07T12:26:28.865Z,4.57
2023-03-07T12:29:13.355Z,4.65
2023-03-07T12:32:16.417Z,5.43
2023-03-07T12:35:18.162Z,5.07
2023-03-07T12:46:11.554Z,5.50
2023-03-07T12:48:52.512Z,3.60
2023-03-07T12:56:15.413Z,3.65
2023-03-07T12:59:19.680Z,3.67
2023-03-07T13:02:40.761Z,4.07
2023-03-07T13:05:21.729Z,5.15
2023-03-07T13:07:53.733Z,4.70
2023-03-07T13:13:45.467Z,4.22
2023-03-07T13:16:37.704Z,4.63
2023-03-07T13:19:51.194Z,4.05
2023-03-07T13:22:18.272Z,4.45
2023-03-07T13:24:49.812Z,5.47
2023-03-07T13:27:29.802Z,4.72
2023-03-07T13:30:12.476Z,5.00
2023-03-07T13:35:28.283Z,3.70
2023-03-07T13:38:03.806Z,4.82
2023-03-07T13:40:39.663Z,4.88
2023-03-07T13:43:28.360Z,5.40
2023-03-07T13:46:06.807Z,4.28
2023-03-07T13:48:40.312Z,4.05
2023-03-07T13:51:09.559Z,4.82
2023-03-07T13:53:44.555Z,4.63
2023-03-07T13:56:20.425Z,5.10
2023-03-07T13:59:20.459Z,4.00
2023-03-07T14:02:04.208Z,4.63
2023-03-07T14:05:03.268Z,5.18
2023-03-07T14:07:37.447Z,4.55
2023-03-07T14:10:30.574Z,6.25
2023-03-07T14:13:33.706Z,4.47
2023-03-07T14:19:28.144Z,4.72
2023-03-07T14:22:43.595Z,4.40
2023-03-07T14:35:42.892Z,5.00
2023-03-07T14:38:32.204Z,4.47
2023-03-07T14:46:26.601Z,5.85
2023-03-07T14:49:35.836Z,6.13
2023-03-07T14:52:04.272Z,4.68
2023-03-07T14:54:37.436Z,4.03
2023-03-07T14:57:04.928Z,4.88
2023-03-07T14:59:32.022Z,5.07
2023-03-07T15:02:00.274Z,5.15
2023-03-07T15:04:32.725Z,5.05
2023-03-07T15:07:04.685Z,5.15
2023-03-07T15:09:35.277Z,3.75
2023-03-07T15:12:18.932Z,4.07
2023-03-07T15:14:59.727Z,4.20
2023-03-07T15:17:35.676Z,5.28
2023-03-07T15:20:15.137Z,4.10
2023-03-07T15:22:43.205Z,4.07
2023-03-07T15:25:25.785Z,4.50
2023-03-07T15:28:27.013Z,4.13
2023-03-07T15:30:55.802Z,3.75
2023-03-07T15:33:27.506Z,3.53
2023-03-07T15:36:11.362Z,4.23
2023-03-07T15:38:51.452Z,4.05
2023-03-07T15:41:36.346Z,3.90
2023-03-07T15:44:10.607Z,3.92
2023-03-07T15:46:45.719Z,3.25
2023-03-07T15:49:45.668Z,3.67
2023-03-07T15:52:33.033Z,3.20
2023-03-07T15:55:08.267Z,3.67
2023-03-07T15:57:56.112Z,3.50
2023-03-07T16:00:38.397Z,3.83
2023-03-07T16:03:32.679Z,4.93
2023-03-07T16:06:01.651Z,3.78
2023-03-07T16:08:29.028Z,3.90
2023-03-07T16:11:02.844Z,5.40
2023-03-07T16:13:38.979Z,3.60
2023-03-07T16:16:17.322Z,4.53
2023-03-07T16:18:44.584Z,3.92
2023-03-07T16:21:14.916Z,3.55
2023-03-07T16:23:43.907Z,3.28
2023-03-07T16:26:16.517Z,3.63
2023-03-07T16:28:48.033Z,4.03
2023-03-07T16:31:18.181Z,4.72
2023-03-07T16:33:47.187Z,4.45
2023-03-07T16:36:15.881Z,4.28
2023-03-07T16:38:43.891Z,4.45
2023-03-07T16:41:17.647Z,4.10
2023-03-07T16:43:51.592Z,4.38
2023-03-07T16:46:20.379Z,3.25
2023-03-07T16:48:48.548Z,2.83
2023-03-07T16:51:22.554Z,4.32
2023-03-07T16:53:53.107Z,4.72
2023-03-07T16:56:32.512Z,3.85
2023-03-07T16:59:01.642Z,3.75
2023-03-07T17:01:29.063Z,4.75
2023-03-07T17:03:57.582Z,3.33
2023-03-07T17:06:37.103Z,2.55
2023-03-07T17:09:06.930Z,3.63
2023-03-07T17:11:34.283Z,4.97
2023-03-07T17:14:06.098Z,3.25
2023-03-07T17:16:39.150Z,3.35
2023-03-07T17:19:07.986Z,2.35
2023-03-07T17:21:35.107Z,2.47
2023-03-07T17:24:08.541Z,2.67
2023-03-07T17:26:41.048Z,1.50
2023-03-07T17:31:42.115Z,2.35
2023-03-07T17:34:23.913Z,3.30
2023-03-07T17:36:51.179Z,2.93
2023-03-07T17:39:24.300Z,3.30
2023-03-07T17:41:51.862Z,4.20
2023-03-07T17:44:18.960Z,4.22
2023-03-07T17:46:47.758Z,2.83
2023-03-07T17:49:18.872Z,3.50
2023-03-07T17:51:46.762Z,3.83
2023-03-07T17:54:14.068Z,3.35
2023-03-07T17:56:41.344Z,3.90
2023-03-07T17:59:08.548Z,2.90
2023-03-07T18:01:36.019Z,3.47
2023-03-07T18:04:06.311Z,2.95
2023-03-07T18:06:38.415Z,3.72
2023-03-07T18:09:07.424Z,3.38
2023-03-07T18:11:35.584Z,3.38
2023-03-07T18:14:03.700Z,3.38
2023-03-07T18:16:31.434Z,3.22
2023-03-07T18:19:01.774Z,2.53
2023-03-07T18:21:30.531Z,3.05
2023-03-07T18:23:58.227Z,3.20
2023-03-07T18:26:39.513Z,3.05
2023-03-07T18:29:19.814Z,3.40
2023-03-07T18:31:47.981Z,3.13
2023-03-07T18:34:15.897Z,3.78
2023-03-07T18:36:43.948Z,3.33
2023-03-07T18:39:12.028Z,3.42
2023-03-07T18:41:41.190Z,2.90
2023-03-07T18:44:10.970Z,3.33
2023-03-07T18:46:38.354Z,3.35
2023-03-07T18:49:08.347Z,2.58
2023-03-07T18:51:35.780Z,2.72
2023-03-07T18:54:03.725Z,2.70
2023-03-07T18:56:31.076Z,2.80
2023-03-07T18:58:59.464Z,2.97
2023-03-07T19:01:32.520Z,2.47
2023-03-07T19:04:03.414Z,2.95
2023-03-07T19:06:45.087Z,2.58
2023-03-07T19:09:20.277Z,2.67
2023-03-07T19:11:47.664Z,1.75
2023-03-07T19:14:14.935Z,2.17
2023-03-07T19:16:42.286Z,1.60
2023-03-07T19:19:09.566Z,1.98
2023-03-07T19:21:37.016Z,1.77
2023-03-07T19:24:05.773Z,2.05
2023-03-07T19:26:35.493Z,2.10
2023-03-07T19:29:04.305Z,2.13
2023-03-07T19:31:33.062Z,2.08
2023-03-07T19:34:06.792Z,2.00
2023-03-07T19:36:35.521Z,2.10
2023-03-07T19:39:03.951Z,2.80
2023-03-07T19:41:31.945Z,2.85
2023-03-07T19:44:00.850Z,2.70
2023-03-07T19:46:30.369Z,2.78
2023-03-07T19:49:00.941Z,2.85
2023-03-07T19:51:28.041Z,3.47
2023-03-07T19:53:57.527Z,3.97
2023-03-07T19:56:30.644Z,3.45
2023-03-07T19:59:00.857Z,3.20
2023-03-07T20:01:30.001Z,4.00
2023-03-07T20:03:57.781Z,3.75
2023-03-07T20:06:31.068Z,3.08
2023-03-07T20:09:00.595Z,3.53
2023-03-07T20:11:31.695Z,3.83
2023-03-07T20:14:02.435Z,3.60
2023-03-07T20:16:29.742Z,3.20
2023-03-07T20:19:04.315Z,3.72
2023-03-07T20:21:35.752Z,3.95
2023-03-07T20:24:07.507Z,4.65
2023-03-07T20:26:37.797Z,4.28
2023-03-07T20:29:07.177Z,6.63
2023-03-07T20:31:34.370Z,7.30
2023-03-07T20:34:02.396Z,5.50
2023-03-07T20:36:35.870Z,4.13
2023-03-07T20:39:08.160Z,7.60
2023-03-07T20:41:36.382Z,7.07
2023-03-07T20:44:07.468Z,7.40
2023-03-07T20:46:38.894Z,4.93
2023-03-07T20:49:06.168Z,4.45
2023-03-07T20:51:36.205Z,4.10
2023-03-07T20:54:08.325Z,4.72
2023-03-07T20:56:38.061Z,3.80
2023-03-07T20:59:06.332Z,3.22
2023-03-07T21:01:35.947Z,3.10
2023-03-07T21:04:11.343Z,3.20
2023-03-07T21:06:44.563Z,3.13
2023-03-07T21:09:15.795Z,3.50
2023-03-07T21:11:46.999Z,3.38
2023-03-07T21:14:16.795Z,3.25
2023-03-07T21:16:44.471Z,3.40
2023-03-07T21:19:12.675Z,3.65
2023-03-07T21:21:40.710Z,3.95
2023-03-07T21:24:11.248Z,3.70
2023-03-07T21:26:42.244Z,3.35
2023-03-07T21:29:10.943Z,3.50
2023-03-07T21:31:38.833Z,4.00
2023-03-07T21:34:13.347Z,3.90
2023-03-07T21:36:41.082Z,3.50
2023-03-07T21:39:10.075Z,3.83
2023-03-07T21:41:37.609Z,3.30
2023-03-07T21:44:04.810Z,3.80
2023-03-07T21:46:32.173Z,3.30
2023-03-07T21:49:03.022Z,3.80
2023-03-07T21:51:30.281Z,3.42
2023-03-07T21:53:57.579Z,3.47
2023-03-07T21:56:26.381Z,3.92
2023-03-07T21:58:55.468Z,3.38
2023-03-07T22:01:27.428Z,3.78
2023-03-07T22:03:58.323Z,4.10
2023-03-07T22:06:26.710Z,3.88
2023-03-07T22:08:54.199Z,3.90
2023-03-07T22:11:22.087Z,3.13
2023-03-07T22:13:49.205Z,3.45
2023-03-07T22:16:23.212Z,3.80
2023-03-07T22:18:57.907Z,3.33
2023-03-07T22:21:26.696Z,3.70
2023-03-07T22:23:58.036Z,3.70
2023-03-07T22:26:27.039Z,4.00
2023-03-07T22:28:55.617Z,4.70
2023-03-07T22:31:24.110Z,4.88
2023-03-07T22:33:51.996Z,5.32
2023-03-07T22:36:19.736Z,5.28
2023-03-07T22:38:46.835Z,5.40
2023-03-07T22:41:17.523Z,5.30
2023-03-07T22:43:44.840Z,5.53
2023-03-07T22:46:12.220Z,4.65
2023-03-07T22:48:40.328Z,5.57
2023-03-07T22:54:25.240Z,5.70
2023-03-07T22:56:52.365Z,4.90
2023-03-07T22:59:19.728Z,6.13
2023-03-07T23:01:47.087Z,5.43
2023-03-07T23:04:14.477Z,6.00
2023-03-07T23:06:41.706Z,5.88
2023-03-07T23:09:09.643Z,7.18
2023-03-07T23:11:37.126Z,7.43
2023-03-07T23:14:04.670Z,8.57
2023-03-07T23:16:34.257Z,8.55
2023-03-07T23:19:02.768Z,8.80
2023-03-07T23:21:35.919Z,8.98
2023-03-07T23:24:04.191Z,8.57
2023-03-07T23:26:37.163Z,7.95
2023-03-07T23:29:07.415Z,8.50
2023-03-07T23:31:38.280Z,5.68
2023-03-07T23:34:13.302Z,4.50
2023-03-07T23:36:40.778Z,4.05
2023-03-07T23:39:08.428Z,3.92
2023-03-07T23:41:35.732Z,4.35
2023-03-07T23:44:04.323Z,4.53
2023-03-07T23:46:31.632Z,4.97
2023-03-07T23:48:59.138Z,5.25
2023-03-07T23:51:26.581Z,4.82
2023-03-07T23:53:53.809Z,5.28
2023-03-07T23:56:21.206Z,5.30
2023-03-07T23:58:55.505Z,4.90
